Time;durP1;ratioP1;P1;durP2;ratioP2;P2;SDS_P1;SDS_P2;PMS_P1;PMS_P2;Temp;Humidity;BMP_temperature;BMP_pressure;BME280_temperature;BME280_humidity;BME280_pressure;Samples;Min_cycle;Max_cycle;Signal;HPM_P1;HPM_P2
2023/05/26 00:00:56;;;;;;;23.55;4.82;;;;;;;;;;5036943;28;20072;-86
2023/05/26 00:03:22;;;;;;;24.60;5.38;;;;;;;;;;5054167;28;20056;-86
2023/05/26 00:05:48;;;;;;;24.67;4.35;;;;;;;;;;5045058;28;20400;-86
2023/05/26 00:08:14;;;;;;;19.95;4.25;;;;;;;;;;5055214;28;20120;-86
2023/05/26 00:10:41;;;;;;;25.52;4.68;;;;;;;;;;5054264;28;20043;-86
2023/05/26 00:13:07;;;;;;;26.05;4.75;;;;;;;;;;5053526;28;20057;-86
2023/05/26 00:15:33;;;;;;;23.58;4.35;;;;;;;;;;5053766;28;20041;-86
2023/05/26 00:18:01;;;;;;;25.92;4.75;;;;;;;;;;5052023;28;20053;-86
2023/05/26 00:20:27;;;;;;;22.88;4.28;;;;;;;;;;5037070;28;20045;-86
2023/05/26 00:22:53;;;;;;;20.42;4.85;;;;;;;;;;5050286;28;20052;-86
2023/05/26 00:25:20;;;;;;;27.33;5.03;;;;;;;;;;5053514;28;20037;-86
2023/05/26 00:27:46;;;;;;;25.83;4.20;;;;;;;;;;5053068;28;20048;-85
2023/05/26 00:30:12;;;;;;;24.15;4.40;;;;;;;;;;5036672;28;20046;-86
2023/05/26 00:32:38;;;;;;;19.20;3.65;;;;;;;;;;5061615;28;20090;-86
2023/05/26 00:35:05;;;;;;;24.80;4.10;;;;;;;;;;5052777;28;20075;-86
2023/05/26 00:37:32;;;;;;;22.35;4.22;;;;;;;;;;5053631;28;20489;-86
2023/05/26 00:39:58;;;;;;;24.50;4.53;;;;;;;;;;5052825;28;20468;-86
2023/05/26 00:42:24;;;;;;;24.38;4.90;;;;;;;;;;5053325;28;20084;-86
2023/05/26 00:44:51;;;;;;;26.55;5.32;;;;;;;;;;5054655;28;20551;-86
2023/05/26 00:47:18;;;;;;;31.30;5.65;;;;;;;;;;5054206;28;20136;-86
2023/05/26 00:49:44;;;;;;;22.30;4.13;;;;;;;;;;5053533;28;20049;-86
2023/05/26 00:52:11;;;;;;;22.85;4.50;;;;;;;;;;5052785;28;20036;-86
2023/05/26 00:54:38;;;;;;;23.02;4.97;;;;;;;;;;5036578;28;20044;-86
2023/05/26 00:57:05;;;;;;;24.63;4.93;;;;;;;;;;5054149;28;20055;-86
2023/05/26 00:59:31;;;;;;;25.80;4.25;;;;;;;;;;5053152;28;20037;-86
2023/05/26 01:01:58;;;;;;;28.25;4.57;;;;;;;;;;5052755;28;20044;-86
2023/05/26 01:04:24;;;;;;;24.50;4.55;;;;;;;;;;5052137;28;20123;-86
2023/05/26 01:06:50;;;;;;;27.63;4.72;;;;;;;;;;5053086;28;20084;-86
2023/05/26 01:09:17;;;;;;;18.95;3.75;;;;;;;;;;5053842;28;20422;-86
2023/05/26 01:11:45;;;;;;;32.70;5.50;;;;;;;;;;5053316;28;20517;-86
2023/05/26 01:14:23;;;;;;;28.33;4.53;;;;;;;;;;5052849;28;20049;-86
2023/05/26 01:17:11;;;;;;;25.95;4.78;;;;;;;;;;5053242;28;20124;-86
2023/05/26 01:19:56;;;;;;;22.48;4.20;;;;;;;;;;5053529;28;20044;-85
2023/05/26 01:22:41;;;;;;;22.25;4.63;;;;;;;;;;5053613;28;20052;-86
2023/05/26 01:25:26;;;;;;;19.88;3.70;;;;;;;;;;5036604;28;20059;-86
2023/05/26 01:28:07;;;;;;;20.50;4.53;;;;;;;;;;5052572;28;20059;-86
2023/05/26 01:30:37;;;;;;;24.08;4.07;;;;;;;;;;5052847;28;20048;-86
2023/05/26 01:33:03;;;;;;;25.17;4.22;;;;;;;;;;5052576;28;20076;-86
2023/05/26 01:35:29;;;;;;;22.88;3.83;;;;;;;;;;5053595;28;20044;-86
2023/05/26 01:37:56;;;;;;;20.55;3.67;;;;;;;;;;5040281;28;20056;-86
2023/05/26 01:40:22;;;;;;;20.05;4.38;;;;;;;;;;5046815;28;20077;-86
2023/05/26 01:43:17;;;;;;;21.90;4.07;;;;;;;;;;5052952;28;20041;-86
2023/05/26 01:45:43;;;;;;;22.38;4.47;;;;;;;;;;5034551;28;20044;-86
2023/05/26 01:48:10;;;;;;;23.77;4.70;;;;;;;;;;5038872;28;20444;-86
2023/05/26 01:50:46;;;;;;;29.45;4.93;;;;;;;;;;5035333;28;20531;-86
2023/05/26 01:53:12;;;;;;;27.63;4.20;;;;;;;;;;5051249;28;20494;-86
2023/05/26 01:55:41;;;;;;;23.13;4.45;;;;;;;;;;5036018;28;20033;-86
2023/05/26 01:58:08;;;;;;;27.50;4.45;;;;;;;;;;5038665;28;20052;-86
2023/05/26 02:00:35;;;;;;;23.83;4.55;;;;;;;;;;5058393;28;20049;-86
2023/05/26 02:03:01;;;;;;;24.38;4.35;;;;;;;;;;5050520;28;20115;-86
2023/05/26 02:05:27;;;;;;;30.15;5.25;;;;;;;;;;5053314;28;20045;-86
2023/05/26 02:07:53;;;;;;;23.05;5.63;;;;;;;;;;5052921;28;20041;-86
2023/05/26 02:10:19;;;;;;;21.83;4.30;;;;;;;;;;5036429;28;20045;-86
2023/05/26 02:12:45;;;;;;;21.30;4.05;;;;;;;;;;5036488;28;20032;-82
2023/05/26 02:15:11;;;;;;;22.95;5.05;;;;;;;;;;5051875;28;20044;-81
2023/05/26 02:17:38;;;;;;;23.35;4.60;;;;;;;;;;5038828;28;20047;-81
2023/05/26 02:20:04;;;;;;;24.13;4.60;;;;;;;;;;5051176;28;20041;-81
2023/05/26 02:22:30;;;;;;;21.67;3.95;;;;;;;;;;5037078;28;20098;-82
2023/05/26 02:24:57;;;;;;;21.98;4.30;;;;;;;;;;5068098;28;20048;-82
2023/05/26 02:27:23;;;;;;;22.35;4.68;;;;;;;;;;5034150;28;20547;-82
2023/05/26 02:29:49;;;;;;;25.67;4.07;;;;;;;;;;5050891;28;20057;-81
2023/05/26 02:32:15;;;;;;;21.50;4.57;;;;;;;;;;5051125;28;20041;-81
2023/05/26 02:34:41;;;;;;;30.35;4.80;;;;;;;;;;5031658;28;20033;-81
2023/05/26 02:37:07;;;;;;;26.52;4.40;;;;;;;;;;5049899;28;20037;-81
2023/05/26 02:39:33;;;;;;;20.98;4.10;;;;;;;;;;5051813;28;20072;-81
2023/05/26 02:42:00;;;;;;;21.15;4.53;;;;;;;;;;5057189;28;20056;-81
2023/05/26 02:44:26;;;;;;;25.67;4.93;;;;;;;;;;5050868;28;20128;-81
2023/05/26 02:46:52;;;;;;;23.88;4.43;;;;;;;;;;5050861;28;20049;-82
2023/05/26 02:49:18;;;;;;;21.75;4.28;;;;;;;;;;5037000;28;20071;-82
2023/05/26 02:51:44;;;;;;;21.00;5.10;;;;;;;;;;5051340;28;20040;-82
2023/05/26 02:54:10;;;;;;;31.30;5.22;;;;;;;;;;5034361;28;20178;-82
2023/05/26 02:56:36;;;;;;;25.70;4.32;;;;;;;;;;5050515;28;20041;-81
2023/05/26 02:59:02;;;;;;;19.83;4.53;;;;;;;;;;5050913;28;20037;-82
2023/05/26 03:01:29;;;;;;;21.85;4.43;;;;;;;;;;5053559;28;20445;-81
2023/05/26 03:03:55;;;;;;;25.20;5.10;;;;;;;;;;5054870;28;20398;-82
2023/05/26 03:06:22;;;;;;;23.65;4.63;;;;;;;;;;5050607;28;20094;-81
2023/05/26 03:08:48;;;;;;;22.73;4.45;;;;;;;;;;5034006;28;20490;-82
2023/05/26 03:11:14;;;;;;;17.73;4.25;;;;;;;;;;5034359;28;20041;-82
2023/05/26 03:13:40;;;;;;;24.90;5.25;;;;;;;;;;5051570;28;20033;-82
2023/05/26 03:16:06;;;;;;;18.20;4.50;;;;;;;;;;5055050;28;20086;-82
2023/05/26 03:18:33;;;;;;;24.38;5.20;;;;;;;;;;5050505;28;20049;-82
2023/05/26 03:20:59;;;;;;;26.30;4.57;;;;;;;;;;5050919;28;20052;-82
2023/05/26 03:23:26;;;;;;;27.05;5.20;;;;;;;;;;5050001;28;20056;-81
2023/05/26 03:25:52;;;;;;;29.38;5.22;;;;;;;;;;5048327;28;20109;-82
2023/05/26 03:28:18;;;;;;;21.13;4.38;;;;;;;;;;5059578;28;20576;-82
2023/05/26 03:30:44;;;;;;;24.92;5.20;;;;;;;;;;5047565;28;20041;-82
2023/05/26 03:33:10;;;;;;;19.58;5.07;;;;;;;;;;5037875;28;20052;-82
2023/05/26 03:35:36;;;;;;;16.13;3.95;;;;;;;;;;5054615;28;20425;-82
2023/05/26 03:38:02;;;;;;;27.67;4.57;;;;;;;;;;5037870;28;20128;-82
2023/05/26 03:40:28;;;;;;;32.33;5.05;;;;;;;;;;5063437;28;20048;-82
2023/05/26 03:42:55;;;;;;;26.55;4.28;;;;;;;;;;5054712;28;20401;-82
2023/05/26 03:45:21;;;;;;;26.20;4.70;;;;;;;;;;5055918;28;20397;-82
2023/05/26 03:47:47;;;;;;;27.05;5.40;;;;;;;;;;5053850;28;20041;-82
2023/05/26 03:50:13;;;;;;;29.45;5.20;;;;;;;;;;5021244;28;20044;-82
2023/05/26 03:52:40;;;;;;;25.58;4.63;;;;;;;;;;5038486;28;20036;-82
2023/05/26 03:55:09;;;;;;;21.58;4.45;;;;;;;;;;5055162;28;20065;-82
2023/05/26 03:57:35;;;;;;;28.42;5.45;;;;;;;;;;5037763;28;20048;-82
2023/05/26 04:00:03;;;;;;;20.45;4.28;;;;;;;;;;5053844;28;20091;-81
2023/05/26 04:02:29;;;;;;;26.92;4.95;;;;;;;;;;5051619;28;20429;-82
2023/05/26 04:04:56;;;;;;;21.27;5.22;;;;;;;;;;5021513;28;20055;-82
2023/05/26 04:07:22;;;;;;;24.85;4.70;;;;;;;;;;5036716;28;20441;-82
2023/05/26 04:09:48;;;;;;;21.58;4.45;;;;;;;;;;5070294;28;20045;-82
2023/05/26 04:12:14;;;;;;;23.52;4.65;;;;;;;;;;5036973;28;20068;-82
2023/05/26 04:14:40;;;;;;;14.75;4.72;;;;;;;;;;5053434;28;20048;-82
2023/05/26 04:17:06;;;;;;;20.88;3.92;;;;;;;;;;5054925;28;20512;-81
2023/05/26 04:19:32;;;;;;;19.23;4.43;;;;;;;;;;5053342;28;20122;-81
2023/05/26 04:21:58;;;;;;;19.05;4.70;;;;;;;;;;5053663;28;20048;-81
2023/05/26 04:24:26;;;;;;;16.50;3.50;;;;;;;;;;5037301;28;20048;-81
2023/05/26 04:26:52;;;;;;;21.77;4.97;;;;;;;;;;5053204;28;20127;-81
2023/05/26 04:29:20;;;;;;;23.10;4.70;;;;;;;;;;5054146;28;20044;-81
2023/05/26 04:31:46;;;;;;;21.77;4.25;;;;;;;;;;5046433;28;20045;-81
2023/05/26 04:34:13;;;;;;;19.80;3.55;;;;;;;;;;5047105;28;20486;-81
2023/05/26 04:36:39;;;;;;;23.17;5.07;;;;;;;;;;5022280;28;20045;-81
2023/05/26 04:39:06;;;;;;;17.90;4.43;;;;;;;;;;5053527;28;20401;-81
2023/05/26 04:41:35;;;;;;;19.45;4.25;;;;;;;;;;5054250;28;20445;-81
2023/05/26 04:44:02;;;;;;;19.95;4.63;;;;;;;;;;5020851;28;20045;-81
2023/05/26 04:46:31;;;;;;;27.42;4.93;;;;;;;;;;5053397;28;20565;-81
2023/05/26 04:48:57;;;;;;;17.95;3.75;;;;;;;;;;5053249;28;20049;-81
2023/05/26 04:51:23;;;;;;;21.00;4.90;;;;;;;;;;5052907;28;20124;-81
2023/05/26 04:53:51;;;;;;;17.25;4.07;;;;;;;;;;5053545;28;20537;-82
2023/05/26 04:56:17;;;;;;;23.73;4.38;;;;;;;;;;5060284;28;20468;-82
2023/05/26 04:58:43;;;;;;;17.30;4.03;;;;;;;;;;5047520;28;20049;-81
2023/05/26 05:01:09;;;;;;;19.60;4.28;;;;;;;;;;5060356;28;20037;-82
2023/05/26 05:03:36;;;;;;;17.52;5.03;;;;;;;;;;5052790;28;20501;-82
2023/05/26 05:06:02;;;;;;;15.73;3.25;;;;;;;;;;5053316;28;20045;-81
2023/05/26 05:08:28;;;;;;;15.75;3.90;;;;;;;;;;5063681;28;20032;-82
2023/05/26 05:10:54;;;;;;;25.20;4.38;;;;;;;;;;5035945;28;20043;-88
2023/05/26 05:13:20;;;;;;;18.55;4.00;;;;;;;;;;5036779;28;20063;-81
2023/05/26 05:15:46;;;;;;;17.38;3.75;;;;;;;;;;5047654;28;20524;-81
2023/05/26 05:18:12;;;;;;;24.38;4.75;;;;;;;;;;5044349;28;20120;-82
2023/05/26 05:20:38;;;;;;;16.45;3.40;;;;;;;;;;5053490;28;20044;-81
2023/05/26 05:23:05;;;;;;;12.55;3.38;;;;;;;;;;5053810;28;20036;-88
2023/05/26 05:25:31;;;;;;;18.92;4.57;;;;;;;;;;5051721;28;20124;-87
2023/05/26 05:27:57;;;;;;;22.23;4.53;;;;;;;;;;5051561;28;20545;-81
2023/05/26 05:30:23;;;;;;;18.88;4.28;;;;;;;;;;5086021;28;20068;-88
2023/05/26 05:32:49;;;;;;;19.23;3.95;;;;;;;;;;5058699;28;20127;-87
2023/05/26 05:35:15;;;;;;;13.98;3.50;;;;;;;;;;5052550;28;20076;-88
2023/05/26 05:37:41;;;;;;;18.40;3.67;;;;;;;;;;5052158;28;20084;-87
2023/05/26 05:40:08;;;;;;;16.17;4.07;;;;;;;;;;5035362;28;20664;-82
2023/05/26 05:42:34;;;;;;;22.13;3.95;;;;;;;;;;5035684;28;20410;-82
2023/05/26 05:45:00;;;;;;;17.38;3.95;;;;;;;;;;5038280;28;20048;-81
2023/05/26 05:47:26;;;;;;;16.65;3.50;;;;;;;;;;5062134;28;20041;-82
2023/05/26 05:49:52;;;;;;;17.77;4.03;;;;;;;;;;5034363;28;20037;-82
2023/05/26 05:52:18;;;;;;;14.73;3.75;;;;;;;;;;5058572;28;20041;-81
2023/05/26 05:54:44;;;;;;;16.02;3.97;;;;;;;;;;5034622;28;20402;-88
2023/05/26 05:57:10;;;;;;;18.65;3.78;;;;;;;;;;5051526;28;20072;-88
2023/05/26 05:59:37;;;;;;;18.15;4.55;;;;;;;;;;5051607;28;20041;-88
2023/05/26 06:02:03;;;;;;;18.85;4.47;;;;;;;;;;5051193;28;20073;-88
2023/05/26 06:04:29;;;;;;;20.75;4.68;;;;;;;;;;5051525;28;20044;-87
2023/05/26 06:06:55;;;;;;;20.38;4.40;;;;;;;;;;5067851;28;20053;-87
2023/05/26 06:09:21;;;;;;;19.30;3.70;;;;;;;;;;5034924;28;20041;-89
2023/05/26 06:11:47;;;;;;;16.45;3.65;;;;;;;;;;5050860;28;20075;-87
2023/05/26 06:14:13;;;;;;;21.75;3.97;;;;;;;;;;5052179;28;20091;-87
2023/05/26 06:16:40;;;;;;;18.75;3.67;;;;;;;;;;5052577;28;20041;-88
2023/05/26 06:19:06;;;;;;;20.10;3.88;;;;;;;;;;5051418;28;20513;-87
2023/05/26 06:21:32;;;;;;;14.23;3.75;;;;;;;;;;5051878;28;20446;-82
2023/05/26 06:23:58;;;;;;;16.55;3.55;;;;;;;;;;5052192;28;20049;-82
2023/05/26 06:26:25;;;;;;;20.02;4.00;;;;;;;;;;5051946;28;20110;-82
2023/05/26 06:28:52;;;;;;;18.35;4.10;;;;;;;;;;5037719;28;20057;-88
2023/05/26 06:31:18;;;;;;;16.83;3.90;;;;;;;;;;5053742;28;20071;-81
2023/05/26 06:33:44;;;;;;;15.00;3.83;;;;;;;;;;5061338;28;20123;-82
2023/05/26 06:36:11;;;;;;;20.75;4.22;;;;;;;;;;5036380;28;20115;-81
2023/05/26 06:38:37;;;;;;;19.23;3.95;;;;;;;;;;5050466;28;20118;-87
2023/05/26 06:41:03;;;;;;;14.52;3.70;;;;;;;;;;5054375;28;20040;-86
2023/05/26 06:43:29;;;;;;;17.27;3.95;;;;;;;;;;5058257;28;20064;-88
2023/05/26 06:45:55;;;;;;;22.70;3.83;;;;;;;;;;5053791;28;20080;-85
2023/05/26 06:48:21;;;;;;;14.25;3.67;;;;;;;;;;5034193;28;20120;-85
2023/05/26 06:50:47;;;;;;;15.23;4.20;;;;;;;;;;5034478;28;20049;-85
2023/05/26 06:53:14;;;;;;;18.20;4.10;;;;;;;;;;5050536;28;20041;-86
2023/05/26 06:55:40;;;;;;;15.30;3.53;;;;;;;;;;5041372;28;20041;-87
2023/05/26 06:58:06;;;;;;;20.50;3.67;;;;;;;;;;5050806;28;20170;-86
2023/05/26 07:00:32;;;;;;;16.55;3.75;;;;;;;;;;5050672;28;20039;-87
2023/05/26 07:02:58;;;;;;;14.70;3.72;;;;;;;;;;5053473;28;20040;-86
2023/05/26 07:05:24;;;;;;;15.57;3.60;;;;;;;;;;5054631;28;20119;-87
2023/05/26 07:07:50;;;;;;;20.02;3.80;;;;;;;;;;5052582;28;20037;-86
2023/05/26 07:10:16;;;;;;;15.70;3.97;;;;;;;;;;5050397;28;20041;-87
2023/05/26 07:12:42;;;;;;;16.05;3.78;;;;;;;;;;5049548;28;20041;-87
2023/05/26 07:15:09;;;;;;;18.88;3.55;;;;;;;;;;5049716;28;20064;-87
2023/05/26 07:17:35;;;;;;;12.65;3.47;;;;;;;;;;5034411;28;20468;-87
2023/05/26 07:20:01;;;;;;;18.38;3.38;;;;;;;;;;5050379;28;20124;-87
2023/05/26 07:22:27;;;;;;;14.32;3.45;;;;;;;;;;5067032;28;20045;-86
2023/05/26 07:24:53;;;;;;;13.32;3.65;;;;;;;;;;5050244;28;20064;-86
2023/05/26 07:27:19;;;;;;;15.73;3.85;;;;;;;;;;5050612;28;20086;-87
2023/05/26 07:29:45;;;;;;;10.38;2.80;;;;;;;;;;5051758;28;20053;-86
2023/05/26 07:32:11;;;;;;;13.90;3.47;;;;;;;;;;5050403;28;20091;-87
2023/05/26 07:34:37;;;;;;;13.27;2.92;;;;;;;;;;5061877;28;20076;-87
2023/05/26 07:37:03;;;;;;;13.48;2.95;;;;;;;;;;5033620;28;20040;-87
2023/05/26 07:39:29;;;;;;;13.77;3.50;;;;;;;;;;5036628;28;20402;-87
2023/05/26 07:41:56;;;;;;;11.43;3.50;;;;;;;;;;5033612;28;20063;-88
2023/05/26 07:44:22;;;;;;;15.15;2.88;;;;;;;;;;5057489;28;20089;-87
2023/05/26 07:46:48;;;;;;;14.68;3.67;;;;;;;;;;5035327;28;20489;-86
2023/05/26 07:49:14;;;;;;;14.30;3.05;;;;;;;;;;5017087;28;20072;-87
2023/05/26 07:51:40;;;;;;;12.43;2.97;;;;;;;;;;5050109;28;20090;-87
2023/05/26 07:54:06;;;;;;;16.58;3.45;;;;;;;;;;5034022;28;20509;-87
2023/05/26 07:56:32;;;;;;;12.88;3.22;;;;;;;;;;5049791;28;20037;-88
2023/05/26 07:58:58;;;;;;;12.35;2.97;;;;;;;;;;5050233;28;20514;-87
2023/05/26 08:01:24;;;;;;;12.32;2.63;;;;;;;;;;5083875;28;20400;-88
2023/05/26 08:03:50;;;;;;;11.15;3.03;;;;;;;;;;5033593;28;20059;-88
2023/05/26 08:06:16;;;;;;;12.30;3.05;;;;;;;;;;5065909;28;20048;-88
2023/05/26 08:08:43;;;;;;;15.52;3.95;;;;;;;;;;5032494;28;20045;-88
2023/05/26 08:11:09;;;;;;;14.35;3.45;;;;;;;;;;5048231;28;20053;-87
2023/05/26 08:13:35;;;;;;;14.05;3.20;;;;;;;;;;5049440;28;20068;-87
2023/05/26 08:16:01;;;;;;;11.45;2.65;;;;;;;;;;5051230;28;20444;-88
2023/05/26 08:18:27;;;;;;;12.23;3.05;;;;;;;;;;5035324;28;20052;-88
2023/05/26 08:20:53;;;;;;;12.68;2.72;;;;;;;;;;5035280;28;20048;-87
2023/05/26 08:23:20;;;;;;;12.88;2.72;;;;;;;;;;5035400;28;20044;-87
2023/05/26 08:25:46;;;;;;;11.80;2.88;;;;;;;;;;5054608;28;20040;-88
2023/05/26 08:28:12;;;;;;;11.00;2.85;;;;;;;;;;5052834;28;20056;-88
2023/05/26 08:30:38;;;;;;;13.13;3.33;;;;;;;;;;5053787;28;20118;-88
2023/05/26 08:33:04;;;;;;;12.07;3.13;;;;;;;;;;5052887;28;20057;-80
2023/05/26 08:35:30;;;;;;;13.15;3.15;;;;;;;;;;5053568;28;20045;-81
2023/05/26 08:37:56;;;;;;;10.52;2.90;;;;;;;;;;5054466;28;20044;-80
2023/05/26 08:40:22;;;;;;;11.63;3.00;;;;;;;;;;5053150;28;20052;-87
2023/05/26 08:42:52;;;;;;;11.45;3.05;;;;;;;;;;5053373;28;20118;-88
2023/05/26 08:45:18;;;;;;;13.93;3.10;;;;;;;;;;5052874;28;20048;-88
2023/05/26 08:47:45;;;;;;;11.02;3.10;;;;;;;;;;5035052;28;20076;-81
2023/05/26 08:50:11;;;;;;;11.43;3.10;;;;;;;;;;5036499;28;20106;-81
2023/05/26 08:52:38;;;;;;;12.55;2.83;;;;;;;;;;5053450;28;20103;-82
2023/05/26 08:55:05;;;;;;;12.63;3.92;;;;;;;;;;5053001;28;20063;-81
2023/05/26 08:57:32;;;;;;;13.52;3.13;;;;;;;;;;5054168;28;20061;-82
2023/05/26 08:59:58;;;;;;;11.18;2.78;;;;;;;;;;5053315;28;20047;-82
2023/05/26 09:02:24;;;;;;;12.13;3.03;;;;;;;;;;5052598;28;20048;-88
2023/05/26 09:04:51;;;;;;;13.63;3.35;;;;;;;;;;5069324;28;20048;-87
2023/05/26 09:07:18;;;;;;;10.15;2.95;;;;;;;;;;5036051;28;20445;-87
2023/05/26 09:09:44;;;;;;;12.95;2.55;;;;;;;;;;5057590;28;20171;-82
2023/05/26 09:12:10;;;;;;;14.43;3.00;;;;;;;;;;5036107;28;20036;-80
2023/05/26 09:14:37;;;;;;;12.98;2.85;;;;;;;;;;5053042;28;20401;-82
2023/05/26 09:17:04;;;;;;;10.43;3.05;;;;;;;;;;5038191;28;20049;-81
2023/05/26 09:19:32;;;;;;;12.43;2.75;;;;;;;;;;5038572;28;20481;-81
2023/05/26 09:22:05;;;;;;;12.48;2.60;;;;;;;;;;5058050;28;20072;-80
2023/05/26 09:24:42;;;;;;;10.98;2.75;;;;;;;;;;5055205;28;20152;-81
2023/05/26 09:27:15;;;;;;;8.88;2.58;;;;;;;;;;5045708;28;20041;-81
2023/05/26 09:30:11;;;;;;;9.07;2.55;;;;;;;;;;5067145;28;20049;-81
2023/05/26 09:32:38;;;;;;;11.27;2.63;;;;;;;;;;5039930;28;20052;-81
2023/05/26 09:35:04;;;;;;;7.07;2.42;;;;;;;;;;5052601;28;20166;-82
2023/05/26 09:37:31;;;;;;;10.60;2.90;;;;;;;;;;5040000;28;20045;-80
2023/05/26 09:40:10;;;;;;;15.00;2.90;;;;;;;;;;5080139;28;20390;-81
2023/05/26 09:42:47;;;;;;;11.15;3.08;;;;;;;;;;5078116;28;20076;-81
2023/05/26 09:45:13;;;;;;;15.70;2.83;;;;;;;;;;5038416;28;20052;-80
2023/05/26 09:47:39;;;;;;;13.35;3.10;;;;;;;;;;5035537;28;20045;-81
2023/05/26 09:50:06;;;;;;;12.02;2.78;;;;;;;;;;5053266;28;20053;-88
2023/05/26 09:52:36;;;;;;;12.88;2.85;;;;;;;;;;5035594;28;20532;-87
2023/05/26 09:55:02;;;;;;;14.32;3.08;;;;;;;;;;5052178;28;20402;-81
2023/05/26 09:57:28;;;;;;;12.40;2.65;;;;;;;;;;5052143;28;20404;-80
2023/05/26 09:59:56;;;;;;;11.32;2.75;;;;;;;;;;5035465;28;20106;-81
2023/05/26 10:02:23;;;;;;;9.10;2.50;;;;;;;;;;5051966;28;20559;-81
2023/05/26 10:04:52;;;;;;;12.32;2.80;;;;;;;;;;5051882;28;20083;-80
2023/05/26 10:07:18;;;;;;;11.13;2.58;;;;;;;;;;5034955;28;20446;-80
2023/05/26 10:09:57;;;;;;;9.50;3.05;;;;;;;;;;5051911;28;20073;-81
2023/05/26 10:12:26;;;;;;;9.80;2.72;;;;;;;;;;5046353;28;20574;-81
2023/05/26 10:14:55;;;;;;;14.23;3.05;;;;;;;;;;5043385;28;20048;-80
2023/05/26 10:17:22;;;;;;;15.55;2.97;;;;;;;;;;5051717;28;20073;-87
2023/05/26 10:19:49;;;;;;;11.73;3.10;;;;;;;;;;5052292;28;20037;-87
2023/05/26 10:22:21;;;;;;;9.63;3.15;;;;;;;;;;5053392;28;20080;-87
2023/05/26 10:24:52;;;;;;;9.60;2.60;;;;;;;;;;5052588;28;20462;-87
2023/05/26 10:27:24;;;;;;;10.35;2.78;;;;;;;;;;5051544;28;20053;-80
2023/05/26 10:30:11;;;;;;;11.57;2.70;;;;;;;;;;5034896;28;20053;-81
2023/05/26 10:32:46;;;;;;;11.05;2.58;;;;;;;;;;5051114;28;20120;-81
2023/05/26 10:35:31;;;;;;;10.57;2.50;;;;;;;;;;5051559;28;20486;-87
2023/05/26 10:38:13;;;;;;;9.63;3.28;;;;;;;;;;5034805;28;20095;-87
2023/05/26 10:40:42;;;;;;;16.77;3.40;;;;;;;;;;5051113;28;20102;-80
2023/05/26 10:43:11;;;;;;;8.82;2.55;;;;;;;;;;5032239;28;20531;-80
2023/05/26 10:45:43;;;;;;;8.77;2.65;;;;;;;;;;5040035;28;20041;-80
2023/05/26 10:48:10;;;;;;;11.77;2.75;;;;;;;;;;5034558;28;20045;-80
2023/05/26 10:50:55;;;;;;;8.88;2.55;;;;;;;;;;5034142;28;20076;-81
2023/05/26 10:53:25;;;;;;;10.70;2.85;;;;;;;;;;5051299;28;20037;-80
2023/05/26 10:55:54;;;;;;;13.50;2.60;;;;;;;;;;5034364;28;20099;-80
2023/05/26 10:58:40;;;;;;;11.30;3.10;;;;;;;;;;5051171;28;20128;-80
2023/05/26 11:01:08;;;;;;;14.77;3.10;;;;;;;;;;5050994;28;20099;-81
2023/05/26 11:03:43;;;;;;;14.15;3.20;;;;;;;;;;5031165;28;20091;-87
2023/05/26 11:06:12;;;;;;;11.02;3.17;;;;;;;;;;5041586;28;20049;-80
2023/05/26 11:08:45;;;;;;;9.75;2.90;;;;;;;;;;5050916;28;20405;-87
2023/05/26 11:11:11;;;;;;;12.60;2.92;;;;;;;;;;5034578;28;20043;-80
2023/05/26 11:13:39;;;;;;;14.00;2.60;;;;;;;;;;5050777;28;20489;-80
2023/05/26 11:16:13;;;;;;;14.95;3.05;;;;;;;;;;5050783;28;20079;-86
2023/05/26 11:18:40;;;;;;;13.32;3.00;;;;;;;;;;5050986;28;20401;-86
2023/05/26 11:21:06;;;;;;;11.25;2.70;;;;;;;;;;5051040;28;20394;-86
2023/05/26 11:23:33;;;;;;;11.82;3.00;;;;;;;;;;5050540;28;20131;-80
2023/05/26 11:25:59;;;;;;;10.43;2.70;;;;;;;;;;5052102;28;20051;-80
2023/05/26 11:28:25;;;;;;;11.95;2.88;;;;;;;;;;5063205;28;20418;-80
2023/05/26 11:30:51;;;;;;;12.82;2.90;;;;;;;;;;5037457;28;20048;-81
2023/05/26 11:33:17;;;;;;;10.75;2.67;;;;;;;;;;5050387;28;20073;-80
2023/05/26 11:35:43;;;;;;;8.23;2.70;;;;;;;;;;5050411;28;20077;-81
2023/05/26 11:38:10;;;;;;;12.20;2.80;;;;;;;;;;5054445;28;20040;-81
2023/05/26 11:40:36;;;;;;;17.15;3.30;;;;;;;;;;5060566;28;20106;-80
2023/05/26 11:43:02;;;;;;;13.65;3.38;;;;;;;;;;5051071;28;20459;-86
2023/05/26 11:45:28;;;;;;;14.73;3.60;;;;;;;;;;5050508;28;20048;-87
2023/05/26 11:47:54;;;;;;;10.23;3.03;;;;;;;;;;5050744;28;20095;-81
2023/05/26 11:50:20;;;;;;;10.30;3.00;;;;;;;;;;5054576;28;20083;-86
2023/05/26 11:52:47;;;;;;;13.25;3.05;;;;;;;;;;5054407;28;20043;-86
2023/05/26 11:55:14;;;;;;;11.70;3.00;;;;;;;;;;5054375;28;20063;-81
2023/05/26 11:57:42;;;;;;;16.45;3.63;;;;;;;;;;5037671;28;20489;-87
2023/05/26 12:00:18;;;;;;;14.85;3.08;;;;;;;;;;5054388;28;20501;-87
2023/05/26 12:02:47;;;;;;;10.88;3.25;;;;;;;;;;5053851;28;20064;-86
2023/05/26 12:05:25;;;;;;;13.07;2.75;;;;;;;;;;5054156;28;20486;-86
2023/05/26 12:08:04;;;;;;;10.98;3.00;;;;;;;;;;5028032;28;20499;-86
2023/05/26 12:10:30;;;;;;;14.13;3.10;;;;;;;;;;5052383;28;20067;-87
2023/05/26 12:12:56;;;;;;;9.23;2.90;;;;;;;;;;5037842;28;20076;-87
2023/05/26 12:15:23;;;;;;;16.63;3.33;;;;;;;;;;5021200;28;20099;-86
2023/05/26 12:17:56;;;;;;;12.52;2.90;;;;;;;;;;5053693;28;20071;-80
2023/05/26 12:20:24;;;;;;;11.55;3.20;;;;;;;;;;5037062;28;20074;-80
2023/05/26 12:22:51;;;;;;;11.25;3.10;;;;;;;;;;5053799;28;20516;-81
2023/05/26 12:25:24;;;;;;;9.02;2.60;;;;;;;;;;5037101;28;20110;-81
2023/05/26 12:27:51;;;;;;;11.07;2.70;;;;;;;;;;5050711;28;20079;-86
2023/05/26 12:30:18;;;;;;;10.80;2.92;;;;;;;;;;5025968;28;20045;-87
2023/05/26 12:32:44;;;;;;;10.30;2.83;;;;;;;;;;5053255;28;20041;-80
2023/05/26 12:35:10;;;;;;;13.77;3.17;;;;;;;;;;5053834;28;20397;-80
2023/05/26 12:37:36;;;;;;;11.40;2.75;;;;;;;;;;5053530;28;20088;-81
2023/05/26 12:40:02;;;;;;;11.65;3.00;;;;;;;;;;5053627;28;20047;-80
2023/05/26 12:42:28;;;;;;;14.50;3.80;;;;;;;;;;5053486;28;20041;-80
2023/05/26 12:44:54;;;;;;;12.30;2.78;;;;;;;;;;5053191;28;20114;-80
2023/05/26 12:47:20;;;;;;;11.38;2.95;;;;;;;;;;5020556;28;20482;-81
2023/05/26 12:49:46;;;;;;;12.20;2.70;;;;;;;;;;5052924;28;20041;-80
2023/05/26 12:52:12;;;;;;;13.18;3.10;;;;;;;;;;5053404;28;20069;-79
2023/05/26 12:54:39;;;;;;;13.93;3.30;;;;;;;;;;5053239;28;20041;-80
2023/05/26 12:57:05;;;;;;;12.50;3.10;;;;;;;;;;5036876;28;20037;-80
2023/05/26 12:59:36;;;;;;;12.73;2.90;;;;;;;;;;5052371;28;20034;-86
2023/05/26 13:02:02;;;;;;;14.98;3.25;;;;;;;;;;5052793;28;20120;-82
2023/05/26 13:04:28;;;;;;;14.05;3.20;;;;;;;;;;5036701;28;20076;-80
2023/05/26 13:06:55;;;;;;;13.43;3.60;;;;;;;;;;5052976;28;20405;-87
2023/05/26 13:09:21;;;;;;;12.77;3.42;;;;;;;;;;5036993;28;20063;-86
2023/05/26 13:11:48;;;;;;;18.27;3.60;;;;;;;;;;5036870;28;20044;-86
2023/05/26 13:14:18;;;;;;;15.63;3.67;;;;;;;;;;5055387;28;20401;-87
2023/05/26 13:16:44;;;;;;;15.85;3.22;;;;;;;;;;5054246;28;20033;-86
2023/05/26 13:19:10;;;;;;;12.43;3.25;;;;;;;;;;5053753;28;20072;-86
2023/05/26 13:21:37;;;;;;;15.98;3.50;;;;;;;;;;5087905;28;20040;-86
2023/05/26 13:24:04;;;;;;;14.07;3.60;;;;;;;;;;5053945;28;20110;-86
2023/05/26 13:26:30;;;;;;;12.52;3.22;;;;;;;;;;5055361;28;20087;-86
2023/05/26 13:28:56;;;;;;;11.15;3.30;;;;;;;;;;5055033;28;20110;-86
2023/05/26 13:31:25;;;;;;;12.90;3.22;;;;;;;;;;5055073;28;20029;-86
2023/05/26 13:33:52;;;;;;;15.55;3.95;;;;;;;;;;5057847;28;20033;-85
2023/05/26 13:36:19;;;;;;;14.32;4.05;;;;;;;;;;5055950;28;20130;-86
2023/05/26 13:38:45;;;;;;;16.48;3.90;;;;;;;;;;5055481;28;20055;-86
2023/05/26 13:41:12;;;;;;;15.25;3.40;;;;;;;;;;5055192;28;20501;-86
2023/05/26 13:43:38;;;;;;;12.32;3.60;;;;;;;;;;5055476;28;20041;-86
2023/05/26 13:46:04;;;;;;;14.65;3.67;;;;;;;;;;5055993;28;20048;-86
2023/05/26 13:48:30;;;;;;;11.15;3.42;;;;;;;;;;5054797;28;20094;-86
2023/05/26 13:50:57;;;;;;;13.73;3.33;;;;;;;;;;5055173;28;20041;-87
2023/05/26 13:53:23;;;;;;;15.38;3.60;;;;;;;;;;5054417;28;20033;-86
2023/05/26 13:55:49;;;;;;;15.82;3.67;;;;;;;;;;5037495;28;20111;-86
2023/05/26 13:58:16;;;;;;;12.57;3.33;;;;;;;;;;5054066;28;20068;-86
2023/05/26 14:00:42;;;;;;;14.20;3.17;;;;;;;;;;5052084;28;20041;-86
2023/05/26 14:03:09;;;;;;;14.20;3.13;;;;;;;;;;5051945;28;20045;-86
2023/05/26 14:05:35;;;;;;;14.25;3.58;;;;;;;;;;5019440;28;20051;-86
2023/05/26 14:08:06;;;;;;;12.57;3.25;;;;;;;;;;5051764;28;20044;-86
2023/05/26 14:10:35;;;;;;;10.80;3.30;;;;;;;;;;5052345;28;20116;-86
2023/05/26 14:13:01;;;;;;;16.10;3.53;;;;;;;;;;5051630;28;20043;-85
2023/05/26 14:15:29;;;;;;;11.93;3.20;;;;;;;;;;5052192;28;20098;-87
2023/05/26 14:17:55;;;;;;;13.93;3.30;;;;;;;;;;5051409;28;20051;-80
2023/05/26 14:20:21;;;;;;;13.43;3.10;;;;;;;;;;5052800;28;20048;-80
2023/05/26 14:22:48;;;;;;;12.27;3.55;;;;;;;;;;5052027;28;20490;-79
2023/05/26 14:25:15;;;;;;;12.75;3.67;;;;;;;;;;5051654;28;20040;-80
2023/05/26 14:27:41;;;;;;;12.23;3.35;;;;;;;;;;5034803;28;20076;-81
2023/05/26 14:30:09;;;;;;;16.17;3.25;;;;;;;;;;5051352;28;20170;-81
2023/05/26 14:32:35;;;;;;;15.25;3.35;;;;;;;;;;5034914;28;20052;-80